createdAt,value
2023-02-06T00:01:48.648Z,103383.97
2023-02-06T00:04:15.772Z,103384.03
2023-02-06T00:06:42.606Z,103362.00
2023-02-06T00:09:09.643Z,103360.03
2023-02-06T00:11:37.074Z,103382.41
2023-02-06T00:14:03.673Z,103369.25
2023-02-06T00:16:33.608Z,103372.63
2023-02-06T00:19:00.910Z,103376.97
2023-02-06T00:21:28.951Z,103346.53
2023-02-06T00:23:58.038Z,103352.66
2023-02-06T00:26:25.213Z,103372.91
2023-02-06T00:28:51.964Z,103344.28
2023-02-06T00:31:18.882Z,103346.56
2023-02-06T00:33:45.439Z,103374.38
2023-02-06T00:36:12.045Z,103367.44
2023-02-06T00:38:39.399Z,103371.84
2023-02-06T00:41:06.168Z,103338.06
2023-02-06T00:43:33.114Z,103370.22
2023-02-06T00:45:59.649Z,103287.94
2023-02-06T00:48:27.104Z,103351.06
2023-02-06T00:50:54.114Z,103357.22
2023-02-06T00:53:21.056Z,103365.03
2023-02-06T00:55:47.664Z,103352.28
2023-02-06T00:58:14.268Z,103369.97
2023-02-06T01:00:40.869Z,103359.41
2023-02-06T01:03:07.402Z,103361.03
2023-02-06T01:05:34.222Z,103365.38
2023-02-06T01:08:02.819Z,103367.50
2023-02-06T01:10:30.800Z,103357.91
2023-02-06T01:12:57.287Z,103366.28
2023-02-06T01:15:23.863Z,103380.63
2023-02-06T01:17:50.438Z,103355.88
2023-02-06T01:20:17.227Z,103390.59
2023-02-06T01:22:43.778Z,103382.59
2023-02-06T01:25:10.316Z,103356.34
2023-02-06T01:27:37.899Z,103380.91
2023-02-06T01:30:06.359Z,103386.28
2023-02-06T01:32:36.225Z,103358.31
2023-02-06T01:35:02.716Z,103333.25
2023-02-06T01:37:29.704Z,103352.66
2023-02-06T01:39:56.647Z,103383.94
2023-02-06T01:42:23.109Z,103371.28
2023-02-06T01:44:49.609Z,103356.94
2023-02-06T01:47:17.870Z,103376.66
2023-02-06T01:49:49.164Z,103326.41
2023-02-06T01:52:17.587Z,103373.88
2023-02-06T01:54:46.320Z,103327.22
2023-02-06T01:57:13.496Z,103358.19
2023-02-06T01:59:42.662Z,103367.03
2023-02-06T02:02:09.274Z,103329.25
2023-02-06T02:04:36.118Z,103342.38
2023-02-06T02:07:11.405Z,103347.66
2023-02-06T02:09:37.888Z,103284.81
2023-02-06T02:12:04.630Z,103356.03
2023-02-06T02:14:31.229Z,103361.22
2023-02-06T02:17:28.175Z,103359.44
2023-02-06T02:20:32.480Z,103358.53
2023-02-06T02:23:10.952Z,103362.72
2023-02-06T02:26:02.360Z,103363.63
2023-02-06T02:29:04.511Z,103370.53
2023-02-06T02:31:43.170Z,103365.34
2023-02-06T02:34:52.525Z,103364.53
2023-02-06T02:37:35.202Z,103274.03
2023-02-06T02:40:19.337Z,103360.22
2023-02-06T02:42:54.077Z,103362.84
2023-02-06T02:45:25.257Z,103361.06
2023-02-06T02:48:05.294Z,103356.88
2023-02-06T02:50:32.734Z,103357.22
2023-02-06T02:53:00.821Z,103359.75
2023-02-06T02:55:27.489Z,103364.00
2023-02-06T02:57:59.964Z,103322.22
2023-02-06T03:00:26.567Z,103303.13
2023-02-06T03:02:54.260Z,103350.03
2023-02-06T03:05:24.403Z,103304.84
2023-02-06T03:08:06.170Z,103371.13
2023-02-06T03:10:44.701Z,103357.19
2023-02-06T03:13:21.562Z,103355.75
2023-02-06T03:15:54.032Z,103370.78
2023-02-06T03:18:25.740Z,103365.38
2023-02-06T03:20:52.539Z,103374.31
2023-02-06T03:23:23.402Z,103373.59
2023-02-06T03:25:53.149Z,103357.00
2023-02-06T03:28:26.527Z,103376.66
2023-02-06T03:30:55.778Z,103339.00
2023-02-06T03:33:27.337Z,103367.09
2023-02-06T03:35:55.247Z,103369.41
2023-02-06T03:38:24.648Z,103363.06
2023-02-06T03:40:52.012Z,103332.47
2023-02-06T03:43:20.264Z,103352.47
2023-02-06T03:45:49.859Z,103370.50
2023-02-06T03:48:24.861Z,103352.91
2023-02-06T03:50:54.248Z,103348.53
2023-02-06T03:53:22.392Z,103378.88
2023-02-06T03:55:50.896Z,103387.50
2023-02-06T03:58:18.265Z,103322.22
2023-02-06T04:00:46.136Z,103386.66
2023-02-06T04:03:13.228Z,103391.94
2023-02-06T04:05:40.686Z,103371.88
2023-02-06T04:08:07.309Z,103379.56
2023-02-06T04:10:33.899Z,103362.09
2023-02-06T04:13:01.377Z,103355.28
2023-02-06T04:15:27.891Z,103387.44
2023-02-06T04:18:00.359Z,103382.47
2023-02-06T04:20:28.314Z,103378.94
2023-02-06T04:22:54.927Z,103380.53
2023-02-06T04:25:21.519Z,103349.06
2023-02-06T04:27:48.235Z,103386.50
2023-02-06T04:30:15.724Z,103388.31
2023-02-06T04:32:42.292Z,103375.25
2023-02-06T04:35:09.099Z,103391.81
2023-02-06T04:37:35.700Z,103398.91
2023-02-06T04:40:02.256Z,103384.25
2023-02-06T04:42:29.039Z,103400.00
2023-02-06T04:44:55.518Z,103386.44
2023-02-06T04:47:22.197Z,103356.34
2023-02-06T04:49:48.743Z,103373.63
2023-02-06T04:52:15.337Z,103361.19
2023-02-06T04:54:41.863Z,103388.91
2023-02-06T04:57:08.774Z,103396.66
2023-02-06T04:59:35.400Z,103304.91
2023-02-06T05:02:02.023Z,103363.97
2023-02-06T05:04:28.576Z,103365.69
2023-02-06T05:06:55.039Z,103370.84
2023-02-06T05:09:21.527Z,103369.19
2023-02-06T05:11:48.006Z,103365.72
2023-02-06T05:14:14.797Z,103338.66
2023-02-06T05:16:41.322Z,103354.31
2023-02-06T05:19:07.908Z,103366.38
2023-02-06T05:21:34.410Z,103348.03
2023-02-06T05:24:00.914Z,103318.44
2023-02-06T05:26:27.706Z,103351.38
2023-02-06T05:28:54.208Z,103366.03
2023-02-06T05:31:20.766Z,103362.47
2023-02-06T05:33:51.141Z,103364.53
2023-02-06T05:36:19.905Z,103357.38
2023-02-06T05:38:47.090Z,103358.16
2023-02-06T05:41:14.079Z,103349.25
2023-02-06T05:43:41.109Z,103362.22
2023-02-06T05:46:09.501Z,103368.84
2023-02-06T05:48:36.079Z,103330.72
2023-02-06T05:51:02.681Z,103356.59
2023-02-06T05:53:29.514Z,103357.59
2023-02-06T05:55:56.897Z,103359.44
2023-02-06T05:58:23.653Z,103360.38
2023-02-06T06:00:50.300Z,103357.09
2023-02-06T06:03:17.016Z,103352.06
2023-02-06T06:05:43.539Z,103341.63
2023-02-06T06:08:10.062Z,103349.44
2023-02-06T06:10:36.584Z,103339.66
2023-02-06T06:13:03.551Z,103284.81
2023-02-06T06:15:30.114Z,103357.72
2023-02-06T06:17:56.684Z,103350.50
2023-02-06T06:20:23.644Z,103366.03
2023-02-06T06:22:50.145Z,103369.72
2023-02-06T06:25:17.093Z,103361.91
2023-02-06T06:27:43.648Z,103341.13
2023-02-06T06:30:11.115Z,103358.56
2023-02-06T06:32:37.708Z,103364.84
2023-02-06T06:35:04.493Z,103365.34
2023-02-06T06:37:30.980Z,103353.28
2023-02-06T06:39:57.746Z,103363.59
2023-02-06T06:42:24.409Z,103340.44
2023-02-06T06:44:50.909Z,103365.75
2023-02-06T06:47:17.508Z,103342.00
2023-02-06T06:49:44.015Z,103338.63
2023-02-06T06:52:23.030Z,103339.94
2023-02-06T06:54:52.515Z,103373.59
2023-02-06T06:57:19.743Z,103339.56
2023-02-06T06:59:46.302Z,103359.50
2023-02-06T07:02:13.058Z,103369.81
2023-02-06T07:04:39.850Z,103368.31
2023-02-06T07:07:06.741Z,103364.34
2023-02-06T07:09:33.342Z,103340.41
2023-02-06T07:12:00.199Z,103321.53
2023-02-06T07:14:26.745Z,103360.53
2023-02-06T07:16:53.435Z,103335.09
2023-02-06T07:19:21.285Z,103355.53
2023-02-06T07:21:47.906Z,103366.50
2023-02-06T07:24:14.358Z,103334.75
2023-02-06T07:26:41.569Z,103327.53
2023-02-06T07:29:08.222Z,103324.22
2023-02-06T07:31:34.829Z,103323.94
2023-02-06T07:34:02.321Z,103333.44
2023-02-06T07:36:28.854Z,103343.56
2023-02-06T07:38:55.457Z,103337.88
2023-02-06T07:41:22.171Z,103352.84
2023-02-06T07:43:48.650Z,103318.06
2023-02-06T07:46:15.484Z,103348.88
2023-02-06T07:48:42.523Z,103347.81
2023-02-06T07:51:09.628Z,103341.75
2023-02-06T07:53:36.709Z,103343.88
2023-02-06T07:56:09.809Z,103359.19
2023-02-06T07:58:36.360Z,103323.47
2023-02-06T08:01:05.181Z,103351.78
2023-02-06T08:03:32.422Z,103354.13
2023-02-06T08:05:59.702Z,103351.25
2023-02-06T08:08:26.318Z,103353.75
2023-02-06T08:10:52.813Z,103339.88
2023-02-06T08:13:19.309Z,103340.78
2023-02-06T08:15:45.853Z,103354.56
2023-02-06T08:18:13.013Z,103354.16
2023-02-06T08:20:39.505Z,103375.81
2023-02-06T08:23:08.025Z,103381.41
2023-02-06T08:25:35.011Z,103383.13
2023-02-06T08:28:01.874Z,103395.19
2023-02-06T08:30:28.494Z,103391.78
2023-02-06T08:32:55.021Z,103378.34
2023-02-06T08:35:21.534Z,103350.81
2023-02-06T08:37:48.447Z,103378.41
2023-02-06T08:40:15.374Z,103347.97
2023-02-06T08:42:42.222Z,103345.69
2023-02-06T08:45:09.688Z,103371.44
2023-02-06T08:47:36.174Z,103377.50
2023-02-06T08:50:03.732Z,103332.09
2023-02-06T08:52:30.500Z,103337.84
2023-02-06T08:54:57.073Z,103338.66
2023-02-06T08:57:23.655Z,103374.88
2023-02-06T08:59:50.459Z,103375.41
2023-02-06T09:02:17.139Z,103367.00
2023-02-06T09:04:43.699Z,103362.09
2023-02-06T09:07:10.311Z,103374.56
2023-02-06T09:09:36.848Z,103291.84
2023-02-06T09:12:04.121Z,103378.38
2023-02-06T09:14:30.922Z,103374.50
2023-02-06T09:16:58.157Z,103366.22
2023-02-06T09:19:25.582Z,103380.50
2023-02-06T09:21:52.273Z,103372.00
2023-02-06T09:24:18.817Z,103370.50
2023-02-06T09:26:59.116Z,103353.41
2023-02-06T09:29:28.976Z,103345.56
2023-02-06T09:31:57.553Z,103353.28
2023-02-06T09:34:25.843Z,103325.09
2023-02-06T09:36:54.483Z,103349.28
2023-02-06T09:39:21.293Z,103368.09
2023-02-06T09:41:53.664Z,103356.56
2023-02-06T09:44:22.151Z,103336.97
2023-02-06T09:46:57.679Z,103372.81
2023-02-06T09:49:39.145Z,103376.78
2023-02-06T09:52:42.706Z,103375.69
2023-02-06T09:55:48.009Z,103374.75
2023-02-06T09:58:20.694Z,103373.34
2023-02-06T10:00:57.078Z,103372.38
2023-02-06T10:03:42.465Z,103371.69
2023-02-06T10:06:21.247Z,103377.81
2023-02-06T10:09:00.129Z,103351.06
2023-02-06T10:12:05.237Z,103372.81
2023-02-06T10:15:01.783Z,103360.00
2023-02-06T10:17:32.670Z,103355.94
2023-02-06T10:20:11.186Z,103356.34
2023-02-06T10:22:47.486Z,103336.66
2023-02-06T10:25:29.588Z,103343.19
2023-02-06T10:28:02.954Z,103338.78
2023-02-06T10:31:01.787Z,103333.78
2023-02-06T10:33:36.207Z,103334.75
2023-02-06T10:36:29.200Z,103338.69
2023-02-06T10:39:14.734Z,103326.03
2023-02-06T10:42:05.161Z,103317.16
2023-02-06T10:44:34.673Z,103329.66
2023-02-06T10:47:01.430Z,103323.56
2023-02-06T10:49:38.319Z,103311.75
2023-02-06T10:52:19.485Z,103314.28
2023-02-06T10:54:51.122Z,103320.31
2023-02-06T10:57:20.922Z,103308.16
2023-02-06T10:59:53.569Z,103288.50
2023-02-06T11:02:24.808Z,103278.19
2023-02-06T11:04:51.644Z,103292.78
2023-02-06T11:07:25.129Z,103305.91
2023-02-06T11:09:52.930Z,103302.53
2023-02-06T11:12:28.127Z,103267.94
2023-02-06T11:14:58.887Z,103275.66
2023-02-06T11:17:28.264Z,103288.97
2023-02-06T11:20:01.673Z,103289.84
2023-02-06T11:22:34.888Z,103286.06
2023-02-06T11:25:20.621Z,103264.25
2023-02-06T11:27:47.303Z,103286.66
2023-02-06T11:30:35.883Z,103287.25
2023-02-06T11:33:35.030Z,103293.81
2023-02-06T11:36:04.108Z,103280.66
2023-02-06T11:38:32.077Z,103294.66
2023-02-06T11:41:00.681Z,103285.38
2023-02-06T11:43:48.599Z,103262.84
2023-02-06T11:46:20.961Z,103299.13
2023-02-06T11:49:08.813Z,103292.81
2023-02-06T11:51:46.882Z,103274.13
2023-02-06T11:54:43.131Z,103295.88
2023-02-06T11:57:23.213Z,103289.22
2023-02-06T11:59:55.709Z,103290.56
2023-02-06T12:02:28.776Z,103285.34
2023-02-06T12:05:04.002Z,103279.97
2023-02-06T12:08:02.452Z,103277.59
2023-02-06T12:10:33.135Z,103287.94
2023-02-06T12:13:08.602Z,103250.97
2023-02-06T12:15:47.604Z,103276.56
2023-02-06T12:18:27.274Z,103248.81
2023-02-06T12:21:04.878Z,103260.22
2023-02-06T12:23:39.291Z,103264.81
2023-02-06T12:26:11.166Z,103262.91
2023-02-06T12:29:12.698Z,103261.00
2023-02-06T12:31:45.698Z,103249.78
2023-02-06T12:34:28.702Z,103271.78
2023-02-06T12:37:14.924Z,103273.84
2023-02-06T12:39:42.912Z,103275.47
2023-02-06T12:42:09.434Z,103262.44
2023-02-06T12:45:02.084Z,103261.91
2023-02-06T12:47:46.698Z,103256.41
2023-02-06T12:50:19.171Z,103259.34
2023-02-06T12:52:51.069Z,103262.00
2023-02-06T12:55:56.061Z,103267.97
2023-02-06T12:58:42.860Z,103254.66
2023-02-06T13:01:31.650Z,103254.88
2023-02-06T13:04:02.979Z,103240.22
2023-02-06T13:07:09.951Z,103239.59
2023-02-06T13:10:03.393Z,103215.66
2023-02-06T13:12:30.897Z,103201.25
2023-02-06T13:14:58.930Z,103211.53
2023-02-06T13:17:44.819Z,103226.97
2023-02-06T13:20:12.575Z,103221.75
2023-02-06T13:22:40.413Z,103225.44
2023-02-06T13:25:25.770Z,103222.44
2023-02-06T13:27:53.491Z,103193.16
2023-02-06T13:30:29.088Z,103227.53
2023-02-06T13:32:58.756Z,103226.81
2023-02-06T13:35:30.425Z,103227.72
2023-02-06T13:38:22.011Z,103231.34
2023-02-06T13:40:49.103Z,103182.88
2023-02-06T13:43:20.134Z,103223.59
2023-02-06T13:45:47.954Z,103219.06
2023-02-06T13:48:23.642Z,103219.19
2023-02-06T13:51:05.305Z,103218.59
2023-02-06T13:53:49.789Z,103221.88
2023-02-06T13:56:35.116Z,103228.44
2023-02-06T13:59:06.497Z,103203.22
2023-02-06T14:01:33.898Z,103192.41
2023-02-06T14:04:00.757Z,103224.44
2023-02-06T14:06:36.390Z,103215.94
2023-02-06T14:10:06.351Z,103210.69
2023-02-06T14:12:39.442Z,103211.94
2023-02-06T14:15:50.219Z,103214.97
2023-02-06T14:18:39.385Z,103221.44
2023-02-06T14:21:46.786Z,103220.28
2023-02-06T14:24:39.793Z,103203.53
2023-02-06T14:27:06.303Z,103215.28
2023-02-06T14:29:35.823Z,103208.59
2023-02-06T14:32:11.488Z,103208.38
2023-02-06T14:34:42.621Z,103217.34
2023-02-06T14:37:43.224Z,103204.94
2023-02-06T14:40:15.915Z,103213.09
2023-02-06T14:42:45.132Z,103188.66
2023-02-06T14:45:18.865Z,103192.94
2023-02-06T14:47:46.268Z,103215.16
2023-02-06T14:50:23.224Z,103209.19
2023-02-06T14:52:56.389Z,103210.25
2023-02-06T14:55:30.753Z,103220.78
2023-02-06T14:57:58.864Z,103211.66
2023-02-06T15:00:26.373Z,103221.13
2023-02-06T15:03:15.997Z,103220.41
2023-02-06T15:05:43.525Z,103187.84
2023-02-06T15:08:20.205Z,103219.41
2023-02-06T15:10:47.323Z,103223.88
2023-02-06T15:13:34.728Z,103192.56
2023-02-06T15:16:07.330Z,103211.63
2023-02-06T15:18:34.967Z,103166.84
2023-02-06T15:21:03.875Z,103198.00
2023-02-06T15:23:55.585Z,103220.88
2023-02-06T15:26:28.264Z,103207.34
2023-02-06T15:29:04.094Z,103198.44
2023-02-06T15:31:31.041Z,103175.81
2023-02-06T15:33:59.770Z,103199.75
2023-02-06T15:36:39.051Z,103199.50
2023-02-06T15:39:07.996Z,103201.25
2023-02-06T15:41:34.958Z,103187.91
2023-02-06T15:44:12.298Z,103204.66
2023-02-06T15:46:39.036Z,103186.00
2023-02-06T15:49:06.947Z,103160.41
2023-02-06T15:51:50.457Z,103177.44
2023-02-06T15:54:21.232Z,103195.84
2023-02-06T15:56:54.733Z,103186.31
2023-02-06T15:59:25.164Z,103165.59
2023-02-06T16:01:54.346Z,103198.69
2023-02-06T16:04:29.231Z,103193.88
2023-02-06T16:07:20.076Z,103198.72
2023-02-06T16:10:03.793Z,103200.31
2023-02-06T16:12:40.470Z,103207.41
2023-02-06T16:15:36.141Z,103205.09
2023-02-06T16:18:19.414Z,103212.28
2023-02-06T16:20:46.698Z,103203.38
2023-02-06T16:23:28.819Z,103202.06
2023-02-06T16:26:05.403Z,103196.00
2023-02-06T16:28:32.101Z,103165.28
2023-02-06T16:31:01.799Z,103196.28
2023-02-06T16:33:36.331Z,103192.31
2023-02-06T16:36:03.502Z,103191.53
2023-02-06T16:38:30.067Z,103189.03
2023-02-06T16:40:56.650Z,103145.63
2023-02-06T16:43:23.210Z,103153.28
2023-02-06T16:45:50.284Z,103167.16
2023-02-06T16:48:17.630Z,103148.56
2023-02-06T16:50:45.841Z,103182.22
2023-02-06T16:53:23.558Z,103183.91
2023-02-06T16:55:50.224Z,103179.22
2023-02-06T16:58:22.421Z,103182.63
2023-02-06T17:00:49.532Z,103193.75
2023-02-06T17:03:17.613Z,103164.81
2023-02-06T17:05:45.720Z,103139.75
2023-02-06T17:08:23.637Z,103162.25
2023-02-06T17:10:51.626Z,103186.16
2023-02-06T17:13:23.135Z,103166.75
2023-02-06T17:15:52.221Z,103178.34
2023-02-06T17:18:20.767Z,103197.91
2023-02-06T17:20:51.583Z,103194.59
2023-02-06T17:23:18.530Z,103204.72
2023-02-06T17:25:46.369Z,103203.03
2023-02-06T17:28:17.036Z,103209.41
2023-02-06T17:30:44.831Z,103207.03
2023-02-06T17:33:11.910Z,103214.97
2023-02-06T17:35:38.597Z,103188.34
2023-02-06T17:38:07.038Z,103205.53
2023-02-06T17:40:35.547Z,103230.78
2023-02-06T17:43:04.607Z,103170.66
2023-02-06T17:45:31.497Z,103205.41
2023-02-06T17:47:58.360Z,103207.16
2023-02-06T17:50:27.247Z,103209.72
2023-02-06T17:52:56.149Z,103206.09
2023-02-06T17:55:23.746Z,103198.16
2023-02-06T17:57:50.422Z,103204.75
2023-02-06T18:00:19.242Z,103199.66
2023-02-06T18:02:48.070Z,103180.75
2023-02-06T18:05:14.737Z,103174.03
2023-02-06T18:07:41.578Z,103160.88
2023-02-06T18:10:08.832Z,103139.97
2023-02-06T18:12:35.822Z,103182.50
2023-02-06T18:15:03.451Z,103187.06
2023-02-06T18:17:30.930Z,103179.22
2023-02-06T18:19:57.563Z,103187.09
2023-02-06T18:22:24.168Z,103187.97
2023-02-06T18:24:50.928Z,103145.72
2023-02-06T18:27:18.940Z,103199.56
2023-02-06T18:29:50.142Z,103205.66
2023-02-06T18:32:18.544Z,103205.84
2023-02-06T18:34:45.755Z,103201.91
2023-02-06T18:37:12.803Z,103200.00
2023-02-06T18:39:39.635Z,103192.41
2023-02-06T18:42:24.866Z,103172.63
2023-02-06T18:44:51.458Z,103201.09
2023-02-06T18:47:18.893Z,103200.31
2023-02-06T18:49:45.681Z,103187.97
2023-02-06T18:52:12.526Z,103209.00
2023-02-06T18:54:39.621Z,103209.59
2023-02-06T18:57:06.543Z,103199.13
2023-02-06T18:59:33.175Z,103191.09
2023-02-06T19:01:59.858Z,103173.91
2023-02-06T19:04:26.430Z,103195.47
2023-02-06T19:06:52.969Z,103202.38
2023-02-06T19:09:22.426Z,103193.66
2023-02-06T19:11:48.964Z,103198.25
2023-02-06T19:14:17.488Z,103200.06
2023-02-06T19:16:47.403Z,103165.56
2023-02-06T19:19:14.987Z,103180.53
2023-02-06T19:21:42.187Z,103199.78
2023-02-06T19:24:12.503Z,103204.47
2023-02-06T19:26:39.493Z,103185.03
2023-02-06T19:29:06.313Z,103192.19
2023-02-06T19:31:33.202Z,103198.25
2023-02-06T19:34:01.738Z,103215.81
2023-02-06T19:36:29.402Z,103224.44
2023-02-06T19:38:58.516Z,103216.53
2023-02-06T19:41:27.984Z,103218.13
2023-02-06T19:43:55.935Z,103217.19
2023-02-06T19:46:25.208Z,103220.84
2023-02-06T19:48:52.311Z,103224.38
2023-02-06T19:51:21.270Z,103229.31
2023-02-06T19:53:50.156Z,103222.53
2023-02-06T19:56:34.548Z,103221.25
2023-02-06T19:59:05.120Z,103228.66
2023-02-06T20:01:32.160Z,103231.81
2023-02-06T20:04:00.176Z,103189.09
2023-02-06T20:06:28.356Z,103237.00
2023-02-06T20:08:56.793Z,103238.34
2023-02-06T20:11:23.588Z,103231.00
2023-02-06T20:13:52.367Z,103225.63
2023-02-06T20:16:25.465Z,103232.69
2023-02-06T20:18:53.589Z,103210.88
2023-02-06T20:21:33.672Z,103232.66
2023-02-06T20:24:03.633Z,103165.75
2023-02-06T20:26:33.236Z,103231.69
2023-02-06T20:29:00.330Z,103233.50
2023-02-06T20:31:28.092Z,103217.09
2023-02-06T20:33:54.969Z,103237.50
2023-02-06T20:36:24.192Z,103249.72
2023-02-06T20:38:56.017Z,103252.22
2023-02-06T20:41:28.666Z,103200.00
2023-02-06T20:43:59.921Z,103209.78
2023-02-06T20:46:29.681Z,103261.28
2023-02-06T20:49:01.947Z,103251.75
2023-02-06T20:51:28.850Z,103218.69
2023-02-06T20:53:55.854Z,103238.84
2023-02-06T20:56:23.350Z,103254.72
2023-02-06T20:58:51.184Z,103226.59
2023-02-06T21:01:23.224Z,103250.94
2023-02-06T21:03:51.859Z,103237.72
2023-02-06T21:06:18.809Z,103249.09
2023-02-06T21:08:47.121Z,103254.84
2023-02-06T21:11:14.071Z,103257.16
2023-02-06T21:13:41.298Z,103252.75
2023-02-06T21:16:08.661Z,103244.03
2023-02-06T21:18:35.607Z,103226.44
2023-02-06T21:21:09.394Z,103257.50
2023-02-06T21:23:40.296Z,103253.72
2023-02-06T21:26:08.098Z,103248.41
2023-02-06T21:28:35.522Z,103210.28
2023-02-06T21:31:05.667Z,103237.28
2023-02-06T21:33:32.608Z,103239.72
2023-02-06T21:36:01.693Z,103198.66
2023-02-06T21:38:28.317Z,103230.09
2023-02-06T21:40:55.156Z,103240.50
2023-02-06T21:43:21.713Z,103240.47
2023-02-06T21:45:48.486Z,103245.00
2023-02-06T21:48:15.312Z,103229.47
2023-02-06T21:50:42.043Z,103227.09
2023-02-06T21:53:09.484Z,103247.81
2023-02-06T21:55:41.940Z,103247.13
2023-02-06T21:58:08.801Z,103247.31
2023-02-06T22:00:35.352Z,103223.72
2023-02-06T22:03:02.099Z,103245.50
2023-02-06T22:05:29.171Z,103252.91
2023-02-06T22:07:56.810Z,103247.78
2023-02-06T22:10:23.573Z,103228.03
2023-02-06T22:12:50.157Z,103239.91
2023-02-06T22:15:16.789Z,103228.47
2023-02-06T22:17:43.374Z,103245.81
2023-02-06T22:20:10.221Z,103240.91
2023-02-06T22:22:38.677Z,103203.47
2023-02-06T22:25:05.791Z,103246.91
2023-02-06T22:27:33.114Z,103236.03
2023-02-06T22:29:59.865Z,103187.97
2023-02-06T22:32:26.688Z,103224.31
2023-02-06T22:34:53.989Z,103228.16
2023-02-06T22:37:20.869Z,103212.94
2023-02-06T22:39:47.424Z,103199.78
2023-02-06T22:42:14.022Z,103180.47
2023-02-06T22:44:40.677Z,103208.44
2023-02-06T22:47:07.374Z,103177.97
2023-02-06T22:49:34.002Z,103220.50
2023-02-06T22:52:00.552Z,103217.09
2023-02-06T22:54:27.144Z,103213.47
2023-02-06T22:56:53.698Z,103210.75
2023-02-06T22:59:23.105Z,103180.00
2023-02-06T23:01:51.953Z,103185.16
2023-02-06T23:04:28.276Z,103221.72
2023-02-06T23:06:55.757Z,103226.03
2023-02-06T23:09:26.956Z,103198.03
2023-02-06T23:11:54.310Z,103232.94
2023-02-06T23:14:21.424Z,103219.81
2023-02-06T23:16:48.377Z,103197.41
2023-02-06T23:19:15.652Z,103187.75
2023-02-06T23:21:43.158Z,103256.53
2023-02-06T23:24:11.219Z,103245.78
2023-02-06T23:26:38.204Z,103243.69
2023-02-06T23:29:06.517Z,103238.50
2023-02-06T23:31:33.557Z,103245.47
2023-02-06T23:34:00.872Z,103229.09
2023-02-06T23:36:28.076Z,103236.91
2023-02-06T23:38:55.080Z,103249.31
2023-02-06T23:41:27.205Z,103250.16
2023-02-06T23:43:58.404Z,103262.16
2023-02-06T23:46:26.714Z,103262.22
2023-02-06T23:48:53.627Z,103262.06
2023-02-06T23:51:20.879Z,103263.88
2023-02-06T23:53:47.786Z,103235.38
2023-02-06T23:56:20.584Z,103286.91
2023-02-06T23:58:47.386Z,103250.25
